Time;durP1;ratioP1;P1;durP2;ratioP2;P2;SDS_P1;SDS_P2;PMS_P1;PMS_P2;Temp;Humidity;BMP_temperature;BMP_pressure;BME280_temperature;BME280_humidity;BME280_pressure;Samples;Min_cycle;Max_cycle;Signal;HPM_P1;HPM_P2
2023/05/10 00:00:28;;;;;;;5.03;3.37;;;;;;;;;;6293534;28;20200;-57
2023/05/10 00:03:29;;;;;;;4.70;3.30;;;;;;;;;;6294567;28;20197;-53
2023/05/10 00:06:31;;;;;;;6.20;4.30;;;;;;;;;;6317971;28;20207;-56
2023/05/10 00:09:32;;;;;;;4.67;3.40;;;;;;;;;;6318372;28;20193;-56
2023/05/10 00:12:33;;;;;;;6.43;3.87;;;;;;;;;;6317077;28;20192;-53
2023/05/10 00:15:34;;;;;;;4.77;3.87;;;;;;;;;;6301190;28;20192;-57
2023/05/10 00:18:35;;;;;;;6.33;4.03;;;;;;;;;;6301333;28;20216;-52
2023/05/10 00:21:36;;;;;;;8.53;4.27;;;;;;;;;;6315934;28;20262;-55
2023/05/10 00:24:37;;;;;;;5.80;4.03;;;;;;;;;;6283800;28;20205;-54
2023/05/10 00:27:39;;;;;;;6.40;4.43;;;;;;;;;;6303033;28;20200;-57
2023/05/10 00:30:40;;;;;;;4.47;3.87;;;;;;;;;;6288094;28;20304;-55
2023/05/10 00:33:41;;;;;;;3.77;3.47;;;;;;;;;;6290633;28;20181;-55
2023/05/10 00:36:42;;;;;;;4.87;3.33;;;;;;;;;;6276641;28;20233;-56
2023/05/10 00:39:43;;;;;;;5.53;4.50;;;;;;;;;;6282630;28;20188;-55
2023/05/10 00:42:44;;;;;;;5.50;3.80;;;;;;;;;;6295062;28;20196;-53
2023/05/10 00:45:45;;;;;;;4.20;3.77;;;;;;;;;;6298160;28;20185;-54
2023/05/10 00:48:46;;;;;;;8.13;4.73;;;;;;;;;;6298332;28;20533;-54
2023/05/10 00:51:47;;;;;;;5.70;3.97;;;;;;;;;;6296984;28;20218;-57
2023/05/10 00:54:48;;;;;;;7.03;4.60;;;;;;;;;;6299797;28;20208;-52
2023/05/10 00:57:50;;;;;;;4.57;3.90;;;;;;;;;;6299666;28;20196;-56
2023/05/10 01:00:51;;;;;;;7.43;4.53;;;;;;;;;;6293454;28;20189;-53
2023/05/10 01:03:52;;;;;;;5.23;4.50;;;;;;;;;;6306143;28;20193;-53
2023/05/10 01:06:53;;;;;;;4.97;4.10;;;;;;;;;;6285599;28;20193;-55
2023/05/10 01:09:54;;;;;;;7.23;4.30;;;;;;;;;;6308650;28;20223;-53
2023/05/10 01:12:55;;;;;;;4.30;3.90;;;;;;;;;;6308522;28;20245;-55
2023/05/10 01:15:57;;;;;;;6.37;5.17;;;;;;;;;;6297887;28;20178;-57
2023/05/10 01:18:58;;;;;;;5.43;4.93;;;;;;;;;;6285997;28;20185;-56
2023/05/10 01:22:25;;;;;;;4.40;4.00;;;;;;;;;;6303040;28;20215;-54
2023/05/10 01:25:47;;;;;;;6.90;3.90;;;;;;;;;;6312985;28;20223;-56
2023/05/10 01:29:03;;;;;;;4.90;4.20;;;;;;;;;;6280172;28;20222;-52
2023/05/10 01:32:24;;;;;;;6.83;4.43;;;;;;;;;;6282176;28;20273;-55
2023/05/10 01:35:48;;;;;;;4.70;4.30;;;;;;;;;;6296013;28;20186;-56
2023/05/10 01:38:56;;;;;;;5.60;5.10;;;;;;;;;;6322682;28;20237;-56
2023/05/10 01:42:05;;;;;;;6.33;4.50;;;;;;;;;;6311579;28;20185;-56
2023/05/10 01:45:19;;;;;;;5.43;4.40;;;;;;;;;;6306626;28;20217;-55
2023/05/10 01:48:21;;;;;;;4.60;4.20;;;;;;;;;;6293802;28;20204;-56
2023/05/10 01:51:24;;;;;;;6.30;4.30;;;;;;;;;;6304924;28;20219;-57
2023/05/10 01:54:25;;;;;;;5.77;5.17;;;;;;;;;;6314739;28;20197;-53
2023/05/10 01:57:28;;;;;;;7.90;4.07;;;;;;;;;;6302517;28;20204;-56
2023/05/10 02:00:31;;;;;;;4.37;3.60;;;;;;;;;;6314531;28;20201;-54
2023/05/10 02:03:33;;;;;;;5.60;5.00;;;;;;;;;;6277889;28;20324;-57
2023/05/10 02:06:34;;;;;;;6.43;4.90;;;;;;;;;;6295123;28;20197;-56
2023/05/10 02:09:37;;;;;;;7.23;5.30;;;;;;;;;;6291084;28;20189;-57
2023/05/10 02:12:47;;;;;;;7.00;5.47;;;;;;;;;;6294526;28;20208;-57
2023/05/10 02:15:49;;;;;;;4.60;4.20;;;;;;;;;;6310445;28;20213;-56
2023/05/10 02:18:51;;;;;;;4.63;3.93;;;;;;;;;;6307352;28;20197;-57
2023/05/10 02:21:53;;;;;;;6.37;5.73;;;;;;;;;;6302453;28;20189;-52
2023/05/10 02:24:58;;;;;;;7.87;4.40;;;;;;;;;;6287009;28;20292;-56
2023/05/10 02:28:00;;;;;;;5.60;5.00;;;;;;;;;;6307925;28;20204;-52
2023/05/10 02:31:01;;;;;;;5.03;4.53;;;;;;;;;;6336293;28;20205;-57
2023/05/10 02:34:03;;;;;;;4.43;4.03;;;;;;;;;;6306420;28;20271;-56
2023/05/10 02:37:05;;;;;;;8.50;5.63;;;;;;;;;;6305633;28;20224;-56
2023/05/10 02:40:07;;;;;;;5.37;4.87;;;;;;;;;;6297479;28;20188;-56
2023/05/10 02:43:12;;;;;;;4.77;4.27;;;;;;;;;;6279817;28;20216;-52
2023/05/10 02:46:13;;;;;;;5.33;4.57;;;;;;;;;;6296463;28;20271;-56
2023/05/10 02:49:15;;;;;;;7.97;5.27;;;;;;;;;;6280621;28;20199;-54
2023/05/10 02:52:19;;;;;;;6.50;4.00;;;;;;;;;;6292397;28;20264;-52
2023/05/10 02:55:21;;;;;;;6.13;4.87;;;;;;;;;;6310910;28;20193;-53
2023/05/10 02:58:22;;;;;;;6.87;5.13;;;;;;;;;;6324261;28;20186;-56
2023/05/10 03:01:24;;;;;;;5.63;4.60;;;;;;;;;;6323122;28;20206;-55
2023/05/10 03:04:25;;;;;;;7.83;4.80;;;;;;;;;;6296750;28;20247;-56
2023/05/10 03:07:26;;;;;;;6.13;5.10;;;;;;;;;;6294434;28;20220;-56
2023/05/10 03:10:28;;;;;;;11.00;5.70;;;;;;;;;;6279542;28;20262;-56
2023/05/10 03:13:38;;;;;;;6.67;5.23;;;;;;;;;;6287495;28;20243;-57
2023/05/10 03:16:47;;;;;;;6.73;4.87;;;;;;;;;;6306123;28;20217;-56
2023/05/10 03:19:55;;;;;;;6.33;4.80;;;;;;;;;;6321488;28;20181;-57
2023/05/10 03:23:05;;;;;;;7.03;4.23;;;;;;;;;;6300249;28;20189;-57
2023/05/10 03:26:06;;;;;;;6.20;5.20;;;;;;;;;;6293763;28;20225;-57
2023/05/10 03:29:09;;;;;;;6.17;4.50;;;;;;;;;;6320672;28;20186;-57
2023/05/10 03:32:10;;;;;;;4.50;4.07;;;;;;;;;;6309444;28;20300;-58
2023/05/10 03:35:12;;;;;;;6.37;5.43;;;;;;;;;;6313063;28;20193;-57
2023/05/10 03:38:13;;;;;;;7.23;5.40;;;;;;;;;;6312521;28;20258;-56
2023/05/10 03:41:14;;;;;;;6.60;4.53;;;;;;;;;;6314678;28;20216;-57
2023/05/10 03:44:16;;;;;;;6.60;5.43;;;;;;;;;;6314180;28;20192;-57
2023/05/10 03:47:17;;;;;;;4.63;4.23;;;;;;;;;;6313805;28;20193;-58
2023/05/10 03:50:18;;;;;;;6.83;6.00;;;;;;;;;;6298992;28;20329;-58
2023/05/10 03:53:19;;;;;;;6.33;4.93;;;;;;;;;;6311236;28;20189;-58
2023/05/10 03:56:20;;;;;;;4.93;4.40;;;;;;;;;;6303074;28;20200;-57
2023/05/10 03:59:21;;;;;;;5.30;4.60;;;;;;;;;;6303440;28;20219;-57
2023/05/10 04:02:22;;;;;;;5.17;4.67;;;;;;;;;;6314289;28;20283;-58
2023/05/10 04:05:23;;;;;;;5.00;4.43;;;;;;;;;;6281357;28;20197;-58
2023/05/10 04:08:24;;;;;;;5.33;4.70;;;;;;;;;;6291186;28;20198;-56
2023/05/10 04:11:25;;;;;;;7.40;5.20;;;;;;;;;;6301368;28;20213;-57
2023/05/10 04:14:26;;;;;;;6.40;4.80;;;;;;;;;;6313003;28;20193;-59
2023/05/10 04:17:27;;;;;;;6.70;5.00;;;;;;;;;;6307311;28;20225;-59
2023/05/10 04:20:28;;;;;;;5.93;4.90;;;;;;;;;;6302273;28;20193;-57
2023/05/10 04:23:29;;;;;;;8.53;5.27;;;;;;;;;;6267757;28;20197;-58
2023/05/10 04:26:31;;;;;;;5.60;5.03;;;;;;;;;;6296727;28;20202;-57
2023/05/10 04:29:32;;;;;;;6.67;5.63;;;;;;;;;;6299431;28;20197;-58
2023/05/10 04:32:33;;;;;;;7.17;5.20;;;;;;;;;;6321135;28;20209;-58
2023/05/10 04:35:34;;;;;;;7.93;5.10;;;;;;;;;;6287757;28;20246;-59
2023/05/10 04:38:35;;;;;;;6.77;5.77;;;;;;;;;;6308948;28;20328;-58
2023/05/10 04:41:38;;;;;;;5.77;4.67;;;;;;;;;;6320447;28;20287;-58
2023/05/10 04:44:39;;;;;;;6.43;5.03;;;;;;;;;;6303572;28;20239;-57
2023/05/10 04:47:40;;;;;;;6.77;5.23;;;;;;;;;;6299470;28;20207;-57
2023/05/10 04:50:41;;;;;;;6.10;5.33;;;;;;;;;;6305097;28;20213;-59
2023/05/10 04:53:42;;;;;;;5.67;4.80;;;;;;;;;;6279549;28;20200;-57
2023/05/10 04:56:43;;;;;;;6.47;5.00;;;;;;;;;;6309387;28;20192;-57
2023/05/10 04:59:44;;;;;;;5.33;4.37;;;;;;;;;;6291088;28;20272;-58
2023/05/10 05:02:45;;;;;;;5.87;4.80;;;;;;;;;;6292156;28;20188;-58
2023/05/10 05:05:46;;;;;;;4.77;4.27;;;;;;;;;;6304467;28;20197;-58
2023/05/10 05:08:49;;;;;;;5.03;4.60;;;;;;;;;;6299509;28;20189;-58
2023/05/10 05:11:50;;;;;;;5.73;5.00;;;;;;;;;;6280285;28;20262;-58
2023/05/10 05:14:51;;;;;;;6.03;5.07;;;;;;;;;;6291982;28;20190;-57
2023/05/10 05:17:52;;;;;;;7.57;5.20;;;;;;;;;;6306866;28;20207;-59
2023/05/10 05:20:53;;;;;;;4.97;4.47;;;;;;;;;;6288492;28;20290;-58
2023/05/10 05:23:54;;;;;;;7.57;5.30;;;;;;;;;;6277216;28;20200;-59
2023/05/10 05:26:55;;;;;;;5.47;4.43;;;;;;;;;;6294215;28;20193;-58
2023/05/10 05:29:57;;;;;;;4.57;3.90;;;;;;;;;;6305549;28;20200;-59
2023/05/10 05:32:58;;;;;;;6.23;4.47;;;;;;;;;;6316098;28;20204;-57
2023/05/10 05:36:01;;;;;;;5.00;4.33;;;;;;;;;;6305183;28;20193;-57
2023/05/10 05:39:02;;;;;;;4.80;4.23;;;;;;;;;;6311083;28;20189;-58
2023/05/10 05:42:03;;;;;;;5.53;4.93;;;;;;;;;;6307907;28;20193;-58
2023/05/10 05:45:05;;;;;;;5.10;4.50;;;;;;;;;;6301313;28;20203;-58
2023/05/10 05:48:06;;;;;;;5.83;4.67;;;;;;;;;;6286625;28;20192;-58
2023/05/10 05:51:07;;;;;;;5.67;4.30;;;;;;;;;;6311741;28;20310;-58
2023/05/10 05:54:08;;;;;;;6.03;5.37;;;;;;;;;;6297433;28;20193;-58
2023/05/10 05:57:09;;;;;;;5.83;4.80;;;;;;;;;;6287227;28;20195;-59
2023/05/10 06:00:10;;;;;;;6.03;4.80;;;;;;;;;;6295893;28;20194;-59
2023/05/10 06:03:11;;;;;;;4.93;4.20;;;;;;;;;;6299206;28;20230;-58
2023/05/10 06:06:13;;;;;;;7.33;5.40;;;;;;;;;;6298207;28;20212;-58
2023/05/10 06:09:14;;;;;;;6.03;4.87;;;;;;;;;;6271345;28;20194;-59
2023/05/10 06:12:15;;;;;;;6.13;5.53;;;;;;;;;;6309618;28;20212;-58
2023/05/10 06:15:16;;;;;;;4.60;4.20;;;;;;;;;;6308890;28;20208;-58
2023/05/10 06:18:17;;;;;;;6.33;4.47;;;;;;;;;;6309043;28;20662;-58
2023/05/10 06:21:18;;;;;;;5.33;4.67;;;;;;;;;;6292612;28;20193;-58
2023/05/10 06:24:19;;;;;;;4.70;4.30;;;;;;;;;;6296551;28;20202;-59
2023/05/10 06:27:21;;;;;;;6.73;5.20;;;;;;;;;;6299496;28;20196;-58
2023/05/10 06:30:27;;;;;;;7.50;4.97;;;;;;;;;;6301420;28;20220;-57
2023/05/10 06:33:28;;;;;;;5.83;4.77;;;;;;;;;;6279062;28;20194;-59
2023/05/10 06:36:29;;;;;;;6.03;5.43;;;;;;;;;;6285651;28;20296;-59
2023/05/10 06:39:30;;;;;;;6.33;5.60;;;;;;;;;;6297494;28;20189;-59
2023/05/10 06:42:31;;;;;;;6.23;5.10;;;;;;;;;;6306348;28;20224;-59
2023/05/10 06:45:32;;;;;;;4.80;4.40;;;;;;;;;;6298213;28;20280;-58
2023/05/10 06:48:33;;;;;;;7.77;5.90;;;;;;;;;;6278360;28;20200;-59
2023/05/10 06:51:34;;;;;;;7.60;4.90;;;;;;;;;;6284134;28;20225;-59
2023/05/10 06:54:35;;;;;;;5.90;5.23;;;;;;;;;;6299669;28;20189;-58
2023/05/10 06:57:36;;;;;;;8.87;5.60;;;;;;;;;;6311747;28;20197;-59
2023/05/10 07:00:40;;;;;;;5.77;5.17;;;;;;;;;;6304518;28;20231;-59
2023/05/10 07:03:41;;;;;;;6.70;5.13;;;;;;;;;;6316287;28;20202;-59
2023/05/10 07:06:42;;;;;;;5.07;4.57;;;;;;;;;;6291167;28;20186;-59
2023/05/10 07:09:43;;;;;;;5.87;5.33;;;;;;;;;;6294315;28;20205;-59
2023/05/10 07:12:44;;;;;;;5.73;5.03;;;;;;;;;;6309863;28;20192;-59
2023/05/10 07:15:45;;;;;;;7.70;5.80;;;;;;;;;;6306392;28;20193;-59
2023/05/10 07:18:46;;;;;;;6.57;5.63;;;;;;;;;;6294074;28;20193;-59
2023/05/10 07:21:47;;;;;;;7.80;5.60;;;;;;;;;;6297533;28;20200;-59
2023/05/10 07:24:48;;;;;;;5.83;4.50;;;;;;;;;;6281400;28;20197;-59
2023/05/10 07:27:50;;;;;;;6.43;5.00;;;;;;;;;;6301987;28;20196;-59
2023/05/10 07:30:51;;;;;;;6.53;4.47;;;;;;;;;;6298040;28;20227;-59
2023/05/10 07:33:53;;;;;;;4.87;4.20;;;;;;;;;;6291841;28;20202;-59
2023/05/10 07:36:54;;;;;;;5.60;4.90;;;;;;;;;;6292450;28;20321;-59
2023/05/10 07:39:55;;;;;;;6.47;4.73;;;;;;;;;;6298898;28;20204;-59
2023/05/10 07:42:57;;;;;;;6.00;4.43;;;;;;;;;;6301862;28;20196;-59
2023/05/10 07:45:59;;;;;;;7.37;4.53;;;;;;;;;;6298023;28;20203;-59
2023/05/10 07:49:00;;;;;;;6.23;4.50;;;;;;;;;;6280580;28;20196;-59
2023/05/10 07:52:01;;;;;;;5.90;4.63;;;;;;;;;;6299660;28;20244;-59
2023/05/10 07:55:02;;;;;;;6.90;4.00;;;;;;;;;;6286035;28;20216;-59
2023/05/10 07:58:03;;;;;;;5.90;4.53;;;;;;;;;;6311749;28;20213;-59
2023/05/10 08:01:04;;;;;;;7.60;5.23;;;;;;;;;;6289088;28;20204;-59
2023/05/10 08:04:06;;;;;;;5.73;3.87;;;;;;;;;;6296750;28;20197;-59
2023/05/10 08:07:07;;;;;;;5.33;4.57;;;;;;;;;;6274963;28;20196;-59
2023/05/10 08:10:08;;;;;;;5.73;4.27;;;;;;;;;;6300781;28;20209;-59
2023/05/10 08:13:10;;;;;;;6.13;4.70;;;;;;;;;;6276635;28;20216;-59
2023/05/10 08:16:11;;;;;;;3.80;3.43;;;;;;;;;;6290432;28;20189;-59
2023/05/10 08:19:12;;;;;;;8.50;4.40;;;;;;;;;;6306562;28;20261;-59
2023/05/10 08:22:13;;;;;;;4.60;4.20;;;;;;;;;;6303162;28;20209;-59
2023/05/10 08:25:14;;;;;;;4.33;3.93;;;;;;;;;;6297621;28;20238;-59
2023/05/10 08:28:15;;;;;;;5.97;3.87;;;;;;;;;;6302020;28;20240;-59
2023/05/10 08:31:16;;;;;;;4.90;4.40;;;;;;;;;;6318908;28;20209;-59
2023/05/10 08:34:17;;;;;;;5.23;3.90;;;;;;;;;;6306606;28;20282;-59
2023/05/10 08:37:18;;;;;;;5.53;3.87;;;;;;;;;;6306284;28;20255;-59
2023/05/10 08:40:20;;;;;;;7.50;4.20;;;;;;;;;;6298234;28;20235;-58
2023/05/10 08:43:21;;;;;;;4.33;3.93;;;;;;;;;;6291571;28;20206;-59
2023/05/10 08:46:23;;;;;;;4.93;3.70;;;;;;;;;;6303497;28;20196;-59
2023/05/10 08:49:25;;;;;;;4.10;3.70;;;;;;;;;;6305617;28;20219;-59
2023/05/10 08:52:27;;;;;;;5.67;3.77;;;;;;;;;;6289158;28;20229;-58
2023/05/10 08:55:28;;;;;;;4.83;3.97;;;;;;;;;;6293505;28;20186;-58
2023/05/10 08:58:29;;;;;;;5.57;3.83;;;;;;;;;;6293645;28;20193;-62
2023/05/10 09:01:31;;;;;;;4.20;3.40;;;;;;;;;;6290935;28;20204;-62
2023/05/10 09:04:33;;;;;;;6.40;3.60;;;;;;;;;;6296125;28;20278;-62
2023/05/10 09:07:34;;;;;;;4.53;3.50;;;;;;;;;;6285114;28;20194;-58
2023/05/10 09:10:35;;;;;;;6.67;3.93;;;;;;;;;;6283879;28;20224;-59
2023/05/10 09:13:36;;;;;;;4.57;3.43;;;;;;;;;;6280235;28;20181;-58
2023/05/10 09:16:38;;;;;;;4.80;3.73;;;;;;;;;;6312190;28;20186;-58
2023/05/10 09:19:39;;;;;;;4.33;3.83;;;;;;;;;;6297479;28;20189;-59
2023/05/10 09:22:40;;;;;;;3.93;3.53;;;;;;;;;;6301683;28;20192;-59
2023/05/10 09:25:44;;;;;;;5.47;4.17;;;;;;;;;;6297033;28;20419;-59
2023/05/10 09:28:52;;;;;;;5.53;3.40;;;;;;;;;;6292135;28;20244;-57
2023/05/10 09:31:56;;;;;;;4.10;3.70;;;;;;;;;;6292396;28;20309;-58
2023/05/10 09:34:57;;;;;;;5.30;3.87;;;;;;;;;;6280068;28;20186;-58
2023/05/10 09:38:00;;;;;;;6.37;3.73;;;;;;;;;;6293082;28;20273;-59
2023/05/10 09:41:02;;;;;;;4.80;3.60;;;;;;;;;;6326978;28;20280;-59
2023/05/10 09:44:03;;;;;;;4.37;3.70;;;;;;;;;;6300966;28;20200;-59
2023/05/10 09:47:04;;;;;;;5.77;4.07;;;;;;;;;;6296878;28;20193;-58
2023/05/10 09:50:06;;;;;;;5.27;3.23;;;;;;;;;;6308988;28;20224;-58
2023/05/10 09:53:07;;;;;;;4.73;3.40;;;;;;;;;;6289408;28;20247;-58
2023/05/10 09:56:08;;;;;;;5.13;3.63;;;;;;;;;;6290934;28;20197;-58
2023/05/10 09:59:12;;;;;;;5.77;3.70;;;;;;;;;;6329655;28;20211;-58
2023/05/10 10:02:14;;;;;;;5.13;4.13;;;;;;;;;;6313359;28;20189;-58
2023/05/10 10:05:15;;;;;;;4.93;3.43;;;;;;;;;;6299313;28;20205;-58
2023/05/10 10:08:18;;;;;;;6.57;3.83;;;;;;;;;;6305110;28;20197;-59
2023/05/10 10:11:19;;;;;;;4.20;3.80;;;;;;;;;;6303477;28;20262;-58
2023/05/10 10:14:20;;;;;;;4.60;4.20;;;;;;;;;;6306511;28;20200;-62
2023/05/10 10:17:22;;;;;;;5.37;3.80;;;;;;;;;;6311246;28;20216;-62
2023/05/10 10:20:23;;;;;;;4.87;4.27;;;;;;;;;;6278774;28;20291;-61
2023/05/10 10:23:25;;;;;;;5.10;4.60;;;;;;;;;;6298644;28;20256;-67
2023/05/10 10:26:26;;;;;;;4.20;3.80;;;;;;;;;;6293380;28;20249;-58
2023/05/10 10:29:42;;;;;;;5.83;4.43;;;;;;;;;;6309692;28;20196;-58
2023/05/10 10:32:56;;;;;;;7.40;4.80;;;;;;;;;;6309191;28;20217;-58
2023/05/10 10:35:59;;;;;;;4.57;4.10;;;;;;;;;;6330287;28;20188;-57
2023/05/10 10:39:02;;;;;;;4.73;4.33;;;;;;;;;;6321103;28;20193;-57
2023/05/10 10:42:04;;;;;;;4.70;4.27;;;;;;;;;;6301481;28;20178;-55
2023/05/10 10:45:13;;;;;;;4.10;3.70;;;;;;;;;;6307627;28;20230;-57
2023/05/10 10:48:22;;;;;;;3.80;3.20;;;;;;;;;;6284052;28;20193;-57
2023/05/10 10:51:23;;;;;;;4.53;2.77;;;;;;;;;;6326728;28;20217;-57
2023/05/10 10:54:30;;;;;;;3.17;2.83;;;;;;;;;;6288606;28;20196;-57
2023/05/10 10:57:51;;;;;;;5.63;3.70;;;;;;;;;;6290843;28;20190;-57
2023/05/10 11:01:09;;;;;;;4.10;3.70;;;;;;;;;;6294354;28;20205;-58
2023/05/10 11:04:10;;;;;;;5.13;3.10;;;;;;;;;;6310925;28;20192;-57
2023/05/10 11:07:17;;;;;;;4.97;4.13;;;;;;;;;;6310635;28;20198;-57
2023/05/10 11:10:22;;;;;;;5.33;3.90;;;;;;;;;;6316755;28;20209;-57
2023/05/10 11:13:42;;;;;;;4.73;3.67;;;;;;;;;;6307476;28;20272;-57
2023/05/10 11:16:44;;;;;;;4.83;3.80;;;;;;;;;;6315028;28;20182;-57
2023/05/10 11:20:02;;;;;;;4.40;3.90;;;;;;;;;;6315671;28;20189;-57
2023/05/10 11:23:15;;;;;;;5.00;4.00;;;;;;;;;;6322649;28;20196;-57
2023/05/10 11:26:17;;;;;;;4.57;3.87;;;;;;;;;;6324316;28;20240;-57
2023/05/10 11:29:18;;;;;;;4.50;3.03;;;;;;;;;;6311510;28;20197;-57
2023/05/10 11:32:20;;;;;;;4.70;4.30;;;;;;;;;;6328614;28;20216;-58
2023/05/10 11:35:21;;;;;;;8.40;4.90;;;;;;;;;;6274316;28;20194;-58
2023/05/10 11:38:22;;;;;;;5.03;4.53;;;;;;;;;;6267952;28;20240;-57
2023/05/10 11:41:24;;;;;;;5.20;4.17;;;;;;;;;;6311522;28;20189;-57
2023/05/10 11:44:32;;;;;;;4.40;4.00;;;;;;;;;;6313212;28;20188;-57
2023/05/10 11:47:35;;;;;;;4.60;3.87;;;;;;;;;;6283023;28;20267;-57
2023/05/10 11:50:36;;;;;;;7.67;4.37;;;;;;;;;;6291074;28;20221;-57
2023/05/10 11:53:38;;;;;;;5.30;4.23;;;;;;;;;;6299107;28;20200;-57
2023/05/10 11:56:40;;;;;;;5.87;3.90;;;;;;;;;;6303376;28;20189;-57
2023/05/10 11:59:41;;;;;;;3.67;3.17;;;;;;;;;;6314152;28;20181;-57
2023/05/10 12:02:42;;;;;;;3.80;3.40;;;;;;;;;;6289742;28;20207;-57
2023/05/10 12:05:43;;;;;;;4.80;3.67;;;;;;;;;;6288193;28;20258;-57
2023/05/10 12:08:46;;;;;;;3.50;3.20;;;;;;;;;;6278123;28;20198;-57
2023/05/10 12:11:47;;;;;;;3.27;2.97;;;;;;;;;;6318260;28;20220;-57
2023/05/10 12:14:51;;;;;;;5.47;3.53;;;;;;;;;;6281800;28;20193;-57
2023/05/10 12:17:52;;;;;;;4.80;3.47;;;;;;;;;;6297577;28;20197;-57
2023/05/10 12:20:53;;;;;;;4.77;4.27;;;;;;;;;;6275325;28;20192;-57
2023/05/10 12:23:55;;;;;;;4.50;3.70;;;;;;;;;;6272782;28;20186;-58
2023/05/10 12:26:56;;;;;;;4.37;3.97;;;;;;;;;;6292336;28;20193;-58
2023/05/10 12:29:59;;;;;;;5.20;4.70;;;;;;;;;;6281797;28;20192;-57
2023/05/10 12:33:08;;;;;;;4.97;3.83;;;;;;;;;;6304906;28;20242;-57
2023/05/10 12:36:13;;;;;;;4.60;4.20;;;;;;;;;;6307475;28;20181;-57
2023/05/10 12:39:14;;;;;;;4.57;4.13;;;;;;;;;;6309070;28;20187;-58
2023/05/10 12:42:15;;;;;;;3.77;3.10;;;;;;;;;;6287007;28;20251;-57
2023/05/10 12:45:17;;;;;;;4.30;3.57;;;;;;;;;;6286227;28;20201;-57
2023/05/10 12:48:19;;;;;;;4.23;3.73;;;;;;;;;;6312413;28;20280;-58
2023/05/10 12:51:21;;;;;;;6.13;4.13;;;;;;;;;;6290783;28;20275;-57
2023/05/10 12:54:22;;;;;;;5.10;3.43;;;;;;;;;;6297061;28;20200;-57
2023/05/10 12:57:24;;;;;;;4.37;3.97;;;;;;;;;;6278720;28;20196;-57
2023/05/10 13:00:25;;;;;;;5.70;3.70;;;;;;;;;;6273768;28;20197;-57
2023/05/10 13:03:26;;;;;;;4.13;3.73;;;;;;;;;;6310134;28;20548;-58
2023/05/10 13:06:27;;;;;;;4.87;3.83;;;;;;;;;;6302187;28;20196;-58
2023/05/10 13:09:29;;;;;;;4.63;3.47;;;;;;;;;;6305372;28;20200;-58
2023/05/10 13:12:30;;;;;;;4.53;4.07;;;;;;;;;;6320850;28;20214;-58
2023/05/10 13:15:31;;;;;;;3.37;3.07;;;;;;;;;;6292397;28;20193;-58
2023/05/10 13:18:32;;;;;;;3.90;3.60;;;;;;;;;;6294509;28;20194;-58
2023/05/10 13:21:33;;;;;;;4.57;3.93;;;;;;;;;;6277243;28;20209;-58
2023/05/10 13:24:34;;;;;;;4.17;3.87;;;;;;;;;;6306303;28;20196;-58
2023/05/10 13:27:35;;;;;;;4.67;3.50;;;;;;;;;;6307731;28;20200;-58
2023/05/10 13:30:36;;;;;;;4.17;3.67;;;;;;;;;;6308073;28;20274;-58
2023/05/10 13:33:37;;;;;;;3.63;3.33;;;;;;;;;;6300513;28;20192;-58
2023/05/10 13:36:38;;;;;;;4.07;3.50;;;;;;;;;;6298125;28;20320;-58
2023/05/10 13:39:39;;;;;;;4.33;3.93;;;;;;;;;;6309368;28;20201;-58
2023/05/10 13:42:40;;;;;;;3.97;3.57;;;;;;;;;;6304419;28;20216;-58
2023/05/10 13:45:41;;;;;;;3.60;3.30;;;;;;;;;;6294201;28;20209;-58
2023/05/10 13:48:42;;;;;;;3.10;2.80;;;;;;;;;;6279693;28;20226;-58
2023/05/10 13:51:44;;;;;;;5.57;4.03;;;;;;;;;;6301774;28;20227;-58
2023/05/10 13:54:45;;;;;;;5.40;3.70;;;;;;;;;;6295840;28;20196;-58
2023/05/10 13:57:47;;;;;;;4.40;4.00;;;;;;;;;;6293487;28;20213;-58
2023/05/10 14:00:48;;;;;;;3.80;3.50;;;;;;;;;;6300051;28;20198;-58
2023/05/10 14:03:49;;;;;;;4.80;4.23;;;;;;;;;;6332668;28;20216;-58
2023/05/10 14:06:52;;;;;;;3.83;3.53;;;;;;;;;;6289200;28;20202;-58
2023/05/10 14:09:53;;;;;;;3.97;3.57;;;;;;;;;;6293913;28;20201;-58
2023/05/10 14:12:54;;;;;;;4.47;3.70;;;;;;;;;;6293216;28;20212;-59
2023/05/10 14:15:55;;;;;;;5.23;3.87;;;;;;;;;;6300237;28;20284;-58
2023/05/10 14:18:56;;;;;;;4.27;3.60;;;;;;;;;;6294285;28;20196;-58
2023/05/10 14:21:57;;;;;;;3.87;3.57;;;;;;;;;;6275691;28;20265;-57
2023/05/10 14:24:58;;;;;;;4.87;3.50;;;;;;;;;;6288820;28;20221;-58
2023/05/10 14:27:59;;;;;;;5.80;3.40;;;;;;;;;;6304989;28;20197;-58
2023/05/10 14:31:00;;;;;;;6.23;4.03;;;;;;;;;;6298553;28;20220;-58
2023/05/10 14:34:02;;;;;;;4.30;3.80;;;;;;;;;;6305582;28;20189;-58
2023/05/10 14:37:04;;;;;;;3.73;3.10;;;;;;;;;;6288880;28;20245;-58
2023/05/10 14:40:07;;;;;;;5.30;3.67;;;;;;;;;;6294213;28;20198;-58
2023/05/10 14:43:08;;;;;;;4.03;3.30;;;;;;;;;;6305714;28;20249;-58
2023/05/10 14:46:09;;;;;;;2.80;2.60;;;;;;;;;;6277412;28;20197;-58
2023/05/10 14:49:10;;;;;;;4.03;3.10;;;;;;;;;;6268763;28;20182;-58
2023/05/10 14:52:12;;;;;;;3.77;3.40;;;;;;;;;;6263267;28;20216;-58
2023/05/10 14:55:13;;;;;;;4.23;3.37;;;;;;;;;;6294317;28;20386;-58
2023/05/10 14:58:14;;;;;;;4.33;3.93;;;;;;;;;;6312982;28;20193;-58
2023/05/10 15:01:15;;;;;;;3.97;3.00;;;;;;;;;;6292781;28;20193;-58
2023/05/10 15:04:16;;;;;;;5.97;3.77;;;;;;;;;;6289956;28;20205;-58
2023/05/10 15:07:18;;;;;;;4.23;3.83;;;;;;;;;;6270726;28;20266;-58
2023/05/10 15:10:19;;;;;;;3.27;2.97;;;;;;;;;;6300193;28;20211;-58
2023/05/10 15:13:20;;;;;;;4.13;3.73;;;;;;;;;;6311448;28;20188;-58
2023/05/10 15:16:21;;;;;;;3.90;3.60;;;;;;;;;;6299634;28;20220;-62
2023/05/10 15:19:22;;;;;;;3.47;3.00;;;;;;;;;;6300157;28;20191;-59
2023/05/10 15:22:23;;;;;;;3.97;3.60;;;;;;;;;;6313406;28;20242;-59
2023/05/10 15:25:25;;;;;;;4.23;3.27;;;;;;;;;;6287119;28;20200;-58
2023/05/10 15:28:26;;;;;;;3.73;3.13;;;;;;;;;;6280834;28;20196;-58
2023/05/10 15:31:27;;;;;;;3.87;3.57;;;;;;;;;;6286263;28;20212;-57
2023/05/10 15:34:28;;;;;;;4.60;3.40;;;;;;;;;;6295646;28;20223;-58
2023/05/10 15:37:29;;;;;;;3.67;3.17;;;;;;;;;;6308106;28;20240;-58
2023/05/10 15:40:30;;;;;;;4.70;3.00;;;;;;;;;;6300954;28;20200;-58
2023/05/10 15:43:31;;;;;;;5.17;3.57;;;;;;;;;;6282276;28;20196;-58
2023/05/10 15:46:32;;;;;;;3.57;3.30;;;;;;;;;;6301513;28;20189;-58
2023/05/10 15:49:33;;;;;;;4.63;4.23;;;;;;;;;;6298689;28;20286;-58
2023/05/10 15:52:35;;;;;;;4.50;3.70;;;;;;;;;;6285525;28;20209;-58
2023/05/10 15:55:36;;;;;;;4.13;3.40;;;;;;;;;;6333342;28;20234;-58
2023/05/10 15:58:40;;;;;;;5.20;4.17;;;;;;;;;;6301356;28;20189;-58
2023/05/10 16:01:41;;;;;;;4.80;3.77;;;;;;;;;;6310792;28;20202;-58
2023/05/10 16:04:43;;;;;;;4.40;4.00;;;;;;;;;;6304235;28;20215;-58
2023/05/10 16:07:45;;;;;;;6.20;3.70;;;;;;;;;;6280343;28;20197;-58
2023/05/10 16:10:46;;;;;;;4.10;3.70;;;;;;;;;;6273870;28;20292;-58
2023/05/10 16:13:47;;;;;;;7.53;3.87;;;;;;;;;;6300825;28;20185;-58
2023/05/10 16:16:48;;;;;;;3.97;3.67;;;;;;;;;;6294786;28;20258;-58
2023/05/10 16:19:49;;;;;;;5.33;3.80;;;;;;;;;;6300158;28;20212;-58
2023/05/10 16:22:50;;;;;;;4.33;3.80;;;;;;;;;;6305603;28;20246;-58
2023/05/10 16:25:52;;;;;;;4.67;3.33;;;;;;;;;;6292823;28;20221;-58
2023/05/10 16:28:53;;;;;;;4.07;3.67;;;;;;;;;;6307817;28;20197;-58
2023/05/10 16:31:54;;;;;;;4.60;3.40;;;;;;;;;;6290483;28;20245;-58
2023/05/10 16:34:55;;;;;;;3.90;3.60;;;;;;;;;;6305554;28;20182;-57
2023/05/10 16:37:56;;;;;;;4.23;3.83;;;;;;;;;;6311871;28;20289;-59
2023/05/10 16:40:57;;;;;;;3.83;3.47;;;;;;;;;;6321865;28;20199;-58
2023/05/10 16:43:59;;;;;;;3.80;3.43;;;;;;;;;;6295160;28;20262;-59
2023/05/10 16:47:00;;;;;;;3.80;3.27;;;;;;;;;;6280705;28;20242;-57
2023/05/10 16:50:02;;;;;;;4.20;3.53;;;;;;;;;;6293516;28;20201;-59
2023/05/10 16:53:03;;;;;;;3.83;3.47;;;;;;;;;;6291855;28;20213;-61
2023/05/10 16:56:04;;;;;;;3.90;3.60;;;;;;;;;;6302522;28;20202;-59
2023/05/10 16:59:05;;;;;;;4.00;3.60;;;;;;;;;;6305443;28;20195;-57
2023/05/10 17:02:06;;;;;;;4.00;3.70;;;;;;;;;;6290231;28;20235;-57
2023/05/10 17:05:08;;;;;;;4.43;3.60;;;;;;;;;;6316995;28;20192;-57
2023/05/10 17:08:09;;;;;;;4.30;4.00;;;;;;;;;;6307622;28;20190;-57
2023/05/10 17:11:10;;;;;;;5.60;4.40;;;;;;;;;;6308196;28;20303;-57
2023/05/10 17:14:12;;;;;;;4.30;3.83;;;;;;;;;;6311120;28;20177;-57
2023/05/10 17:17:13;;;;;;;3.83;3.53;;;;;;;;;;6292533;28;20188;-57
2023/05/10 17:20:14;;;;;;;4.20;3.90;;;;;;;;;;6299681;28;20205;-57
2023/05/10 17:23:15;;;;;;;4.70;3.57;;;;;;;;;;6291456;28;20266;-57
2023/05/10 17:26:16;;;;;;;4.07;3.77;;;;;;;;;;6281952;28;20215;-57
2023/05/10 17:29:17;;;;;;;5.37;3.77;;;;;;;;;;6289898;28;20223;-57
2023/05/10 17:32:18;;;;;;;4.23;3.93;;;;;;;;;;6307371;28;20232;-57
2023/05/10 17:35:20;;;;;;;4.63;4.23;;;;;;;;;;6289190;28;20197;-57
2023/05/10 17:38:21;;;;;;;4.07;3.60;;;;;;;;;;6314695;28;20232;-57
2023/05/10 17:41:22;;;;;;;4.03;3.63;;;;;;;;;;6297579;28;20196;-57
2023/05/10 17:44:24;;;;;;;3.77;3.40;;;;;;;;;;6316145;28;20190;-57
2023/05/10 17:47:26;;;;;;;4.40;4.07;;;;;;;;;;6305667;28;20197;-57
2023/05/10 17:50:27;;;;;;;5.03;3.73;;;;;;;;;;6298159;28;20278;-57
2023/05/10 17:53:28;;;;;;;3.87;3.37;;;;;;;;;;6290038;28;20196;-56
2023/05/10 17:56:29;;;;;;;4.07;3.37;;;;;;;;;;6283530;28;20212;-51
2023/05/10 17:59:30;;;;;;;6.10;3.67;;;;;;;;;;6289685;28;20261;-51
2023/05/10 18:02:32;;;;;;;4.33;3.60;;;;;;;;;;6296046;28;20203;-60
2023/05/10 18:05:36;;;;;;;4.60;3.30;;;;;;;;;;6295439;28;20199;-60
2023/05/10 18:08:37;;;;;;;5.23;3.20;;;;;;;;;;6317405;28;20197;-60
2023/05/10 18:11:38;;;;;;;6.73;3.57;;;;;;;;;;6305174;28;20268;-59